sensor_id;sensor_type;location;lat;lon;timestamp;pressure;altitude;pressure_sealevel;temperature;humidity
54628;BME280;40525;55.926;21.066;2023-11-19T00:02:20;102238.54;;;0.52;89.79
54628;BME280;40525;55.926;21.066;2023-11-19T00:04:47;102233.28;;;0.48;89.60
54628;BME280;40525;55.926;21.066;2023-11-19T00:07:15;102233.98;;;0.48;89.84
54628;BME280;40525;55.926;21.066;2023-11-19T00:09:45;102230.20;;;0.50;89.72
54628;BME280;40525;55.926;21.066;2023-11-19T00:12:12;102216.79;;;0.54;90.01
54628;BME280;40525;55.926;21.066;2023-11-19T00:14:40;102213.70;;;0.55;89.88
54628;BME280;40525;55.926;21.066;2023-11-19T00:17:07;102203.61;;;0.52;89.89
54628;BME280;40525;55.926;21.066;2023-11-19T00:19:34;102198.00;;;0.49;89.78
54628;BME280;40525;55.926;21.066;2023-11-19T00:22:02;102194.99;;;0.46;89.70
54628;BME280;40525;55.926;21.066;2023-11-19T00:24:30;102192.02;;;0.44;89.73
54628;BME280;40525;55.926;21.066;2023-11-19T00:26:57;102186.77;;;0.40;89.45
54628;BME280;40525;55.926;21.066;2023-11-19T00:29:24;102176.83;;;0.36;89.42
54628;BME280;40525;55.926;21.066;2023-11-19T00:31:51;102169.17;;;0.34;89.52
54628;BME280;40525;55.926;21.066;2023-11-19T00:34:19;102167.61;;;0.34;89.87
54628;BME280;40525;55.926;21.066;2023-11-19T00:36:48;102166.77;;;0.36;90.03
54628;BME280;40525;55.926;21.066;2023-11-19T00:39:16;102161.80;;;0.37;90.41
54628;BME280;40525;55.926;21.066;2023-11-19T00:41:44;102156.64;;;0.39;90.37
54628;BME280;40525;55.926;21.066;2023-11-19T00:44:12;102145.86;;;0.37;90.04
54628;BME280;40525;55.926;21.066;2023-11-19T00:46:40;102141.08;;;0.30;89.86
54628;BME280;40525;55.926;21.066;2023-11-19T00:49:07;102137.17;;;0.25;89.89
54628;BME280;40525;55.926;21.066;2023-11-19T00:51:34;102131.39;;;0.22;89.81
54628;BME280;40525;55.926;21.066;2023-11-19T00:54:01;102131.25;;;0.24;90.29
54628;BME280;40525;55.926;21.066;2023-11-19T00:56:29;102128.55;;;0.26;90.49
54628;BME280;40525;55.926;21.066;2023-11-19T00:58:56;102130.67;;;0.29;90.56
54628;BME280;40525;55.926;21.066;2023-11-19T01:01:23;102124.98;;;0.29;90.62
54628;BME280;40525;55.926;21.066;2023-11-19T01:03:50;102125.61;;;0.27;90.35
54628;BME280;40525;55.926;21.066;2023-11-19T01:06:27;102126.07;;;0.24;90.38
54628;BME280;40525;55.926;21.066;2023-11-19T01:08:54;102123.26;;;0.22;90.33
54628;BME280;40525;55.926;21.066;2023-11-19T01:11:23;102122.00;;;0.19;90.05
54628;BME280;40525;55.926;21.066;2023-11-19T01:13:51;102118.73;;;0.20;90.31
54628;BME280;40525;55.926;21.066;2023-11-19T01:16:19;102112.27;;;0.25;90.67
54628;BME280;40525;55.926;21.066;2023-11-19T01:18:47;102104.91;;;0.30;90.82
54628;BME280;40525;55.926;21.066;2023-11-19T01:21:16;102102.71;;;0.32;90.88
54628;BME280;40525;55.926;21.066;2023-11-19T01:23:43;102099.60;;;0.32;90.84
54628;BME280;40525;55.926;21.066;2023-11-19T01:26:10;102095.91;;;0.29;90.73
54628;BME280;40525;55.926;21.066;2023-11-19T01:28:39;102097.97;;;0.28;90.67
54628;BME280;40525;55.926;21.066;2023-11-19T01:31:17;102097.38;;;0.25;90.50
54628;BME280;40525;55.926;21.066;2023-11-19T01:33:45;102095.94;;;0.21;90.27
54628;BME280;40525;55.926;21.066;2023-11-19T01:36:13;102088.48;;;0.20;90.33
54628;BME280;40525;55.926;21.066;2023-11-19T01:38:41;102085.16;;;0.18;90.53
54628;BME280;40525;55.926;21.066;2023-11-19T01:41:08;102082.17;;;0.17;90.80
54628;BME280;40525;55.926;21.066;2023-11-19T01:43:37;102078.21;;;0.16;91.02
54628;BME280;40525;55.926;21.066;2023-11-19T01:46:05;102074.55;;;0.16;91.00
54628;BME280;40525;55.926;21.066;2023-11-19T01:48:34;102071.05;;;0.13;90.92
54628;BME280;40525;55.926;21.066;2023-11-19T01:51:07;102069.27;;;0.11;90.98
54628;BME280;40525;55.926;21.066;2023-11-19T01:53:36;102064.39;;;0.09;90.90
54628;BME280;40525;55.926;21.066;2023-11-19T01:56:07;102060.77;;;0.08;90.78
54628;BME280;40525;55.926;21.066;2023-11-19T01:58:39;102056.31;;;0.11;90.97
54628;BME280;40525;55.926;21.066;2023-11-19T02:01:07;102054.48;;;0.15;90.87
54628;BME280;40525;55.926;21.066;2023-11-19T02:03:34;102055.96;;;0.20;91.19
54628;BME280;40525;55.926;21.066;2023-11-19T02:06:02;102048.55;;;0.21;91.38
54628;BME280;40525;55.926;21.066;2023-11-19T02:08:30;102044.42;;;0.23;91.51
54628;BME280;40525;55.926;21.066;2023-11-19T02:10:57;102037.52;;;0.23;91.34
54628;BME280;40525;55.926;21.066;2023-11-19T02:13:25;102035.23;;;0.21;91.08
54628;BME280;40525;55.926;21.066;2023-11-19T02:15:53;102028.42;;;0.17;91.04
54628;BME280;40525;55.926;21.066;2023-11-19T02:18:24;102024.48;;;0.10;90.75
54628;BME280;40525;55.926;21.066;2023-11-19T02:20:58;102026.65;;;0.06;90.72
54628;BME280;40525;55.926;21.066;2023-11-19T02:23:27;102026.88;;;0.08;90.91
54628;BME280;40525;55.926;21.066;2023-11-19T02:28:25;102024.33;;;0.12;91.49
54628;BME280;40525;55.926;21.066;2023-11-19T02:30:53;102022.30;;;0.13;91.50
54628;BME280;40525;55.926;21.066;2023-11-19T02:33:20;102024.55;;;0.14;91.57
54628;BME280;40525;55.926;21.066;2023-11-19T02:35:47;102028.88;;;0.13;91.56
54628;BME280;40525;55.926;21.066;2023-11-19T02:38:14;102027.28;;;0.12;91.42
54628;BME280;40525;55.926;21.066;2023-11-19T02:40:42;102034.67;;;0.10;91.27
54628;BME280;40525;55.926;21.066;2023-11-19T02:43:09;102033.42;;;0.08;91.18
54628;BME280;40525;55.926;21.066;2023-11-19T02:45:36;102034.63;;;0.07;91.19
54628;BME280;40525;55.926;21.066;2023-11-19T02:48:03;102036.38;;;0.09;91.17
54628;BME280;40525;55.926;21.066;2023-11-19T02:50:33;102032.73;;;0.08;91.16
54628;BME280;40525;55.926;21.066;2023-11-19T02:53:00;102034.77;;;0.06;91.36
54628;BME280;40525;55.926;21.066;2023-11-19T02:55:28;102037.23;;;0.08;91.79
54628;BME280;40525;55.926;21.066;2023-11-19T02:57:57;102036.38;;;0.09;91.81
54628;BME280;40525;55.926;21.066;2023-11-19T03:00:26;102034.48;;;0.09;91.84
54628;BME280;40525;55.926;21.066;2023-11-19T03:03:03;102027.73;;;0.08;91.83
54628;BME280;40525;55.926;21.066;2023-11-19T03:05:49;102028.23;;;0.07;91.68
54628;BME280;40525;55.926;21.066;2023-11-19T03:08:17;102032.73;;;0.07;91.60
54628;BME280;40525;55.926;21.066;2023-11-19T03:10:47;102027.76;;;0.09;91.64
54628;BME280;40525;55.926;21.066;2023-11-19T03:13:14;102022.11;;;0.13;91.84
54628;BME280;40525;55.926;21.066;2023-11-19T03:15:42;102021.02;;;0.18;92.10
54628;BME280;40525;55.926;21.066;2023-11-19T03:18:09;102017.59;;;0.21;92.19
54628;BME280;40525;55.926;21.066;2023-11-19T03:20:36;102013.27;;;0.21;92.02
54628;BME280;40525;55.926;21.066;2023-11-19T03:23:03;102007.41;;;0.21;92.12
54628;BME280;40525;55.926;21.066;2023-11-19T03:25:30;102009.98;;;0.21;91.81
54628;BME280;40525;55.926;21.066;2023-11-19T03:28:00;102002.70;;;0.19;91.62
54628;BME280;40525;55.926;21.066;2023-11-19T03:30:30;102003.58;;;0.21;91.62
54628;BME280;40525;55.926;21.066;2023-11-19T03:33:01;102003.61;;;0.23;91.72
54628;BME280;40525;55.926;21.066;2023-11-19T03:35:29;102000.54;;;0.25;91.82
54628;BME280;40525;55.926;21.066;2023-11-19T03:37:57;101998.45;;;0.25;91.86
54628;BME280;40525;55.926;21.066;2023-11-19T03:40:24;101989.80;;;0.24;91.76
54628;BME280;40525;55.926;21.066;2023-11-19T03:42:52;101984.91;;;0.21;91.57
54628;BME280;40525;55.926;21.066;2023-11-19T03:45:19;101983.62;;;0.16;91.50
54628;BME280;40525;55.926;21.066;2023-11-19T03:47:47;101976.48;;;0.14;91.55
54628;BME280;40525;55.926;21.066;2023-11-19T03:50:17;101972.65;;;0.12;91.35
54628;BME280;40525;55.926;21.066;2023-11-19T03:52:47;101967.45;;;0.11;91.37
54628;BME280;40525;55.926;21.066;2023-11-19T03:55:15;101961.21;;;0.10;91.44
54628;BME280;40525;55.926;21.066;2023-11-19T03:57:42;101960.22;;;0.13;91.96
54628;BME280;40525;55.926;21.066;2023-11-19T04:00:10;101959.27;;;0.18;92.19
54628;BME280;40525;55.926;21.066;2023-11-19T04:02:40;101951.17;;;0.19;92.05
54628;BME280;40525;55.926;21.066;2023-11-19T04:05:08;101945.78;;;0.18;91.91
54628;BME280;40525;55.926;21.066;2023-11-19T04:07:36;101945.73;;;0.14;91.70
54628;BME280;40525;55.926;21.066;2023-11-19T04:10:05;101949.27;;;0.10;91.60
54628;BME280;40525;55.926;21.066;2023-11-19T04:12:32;101947.60;;;0.04;91.48
54628;BME280;40525;55.926;21.066;2023-11-19T04:14:59;101945.23;;;0.06;91.57
54628;BME280;40525;55.926;21.066;2023-11-19T04:17:27;101937.98;;;0.07;91.80
54628;BME280;40525;55.926;21.066;2023-11-19T04:19:55;101932.12;;;0.07;91.86
54628;BME280;40525;55.926;21.066;2023-11-19T04:22:22;101926.96;;;0.09;92.13
54628;BME280;40525;55.926;21.066;2023-11-19T04:24:51;101925.13;;;0.13;92.36
54628;BME280;40525;55.926;21.066;2023-11-19T04:27:18;101919.77;;;0.14;92.12
54628;BME280;40525;55.926;21.066;2023-11-19T04:29:45;101917.15;;;0.12;92.08
54628;BME280;40525;55.926;21.066;2023-11-19T04:32:14;101912.60;;;0.09;92.01
54628;BME280;40525;55.926;21.066;2023-11-19T04:34:41;101908.83;;;0.10;91.90
54628;BME280;40525;55.926;21.066;2023-11-19T04:37:08;101905.88;;;0.10;91.78
54628;BME280;40525;55.926;21.066;2023-11-19T04:39:39;101899.87;;;0.12;92.04
54628;BME280;40525;55.926;21.066;2023-11-19T04:42:07;101902.33;;;0.14;92.23
54628;BME280;40525;55.926;21.066;2023-11-19T04:44:33;101901.00;;;0.18;92.48
54628;BME280;40525;55.926;21.066;2023-11-19T04:47:00;101901.58;;;0.21;92.43
54628;BME280;40525;55.926;21.066;2023-11-19T04:49:28;101898.79;;;0.20;92.21
54628;BME280;40525;55.926;21.066;2023-11-19T04:51:55;101895.45;;;0.17;92.07
54628;BME280;40525;55.926;21.066;2023-11-19T04:54:22;101890.60;;;0.17;92.20
54628;BME280;40525;55.926;21.066;2023-11-19T04:56:49;101886.27;;;0.16;91.87
54628;BME280;40525;55.926;21.066;2023-11-19T04:59:16;101879.14;;;0.14;91.87
54628;BME280;40525;55.926;21.066;2023-11-19T05:01:46;101874.13;;;0.14;91.96
54628;BME280;40525;55.926;21.066;2023-11-19T05:04:13;101874.32;;;0.15;92.27
54628;BME280;40525;55.926;21.066;2023-11-19T05:06:42;101870.52;;;0.15;92.17
54628;BME280;40525;55.926;21.066;2023-11-19T05:09:09;101867.21;;;0.13;92.28
54628;BME280;40525;55.926;21.066;2023-11-19T05:11:36;101863.91;;;0.12;92.22
54628;BME280;40525;55.926;21.066;2023-11-19T05:14:17;101854.70;;;0.09;92.29
54628;BME280;40525;55.926;21.066;2023-11-19T05:16:45;101851.42;;;0.10;92.21
54628;BME280;40525;55.926;21.066;2023-11-19T05:19:13;101855.58;;;0.10;92.09
54628;BME280;40525;55.926;21.066;2023-11-19T05:21:44;101851.47;;;0.12;92.12
54628;BME280;40525;55.926;21.066;2023-11-19T05:24:11;101847.71;;;0.16;92.30
54628;BME280;40525;55.926;21.066;2023-11-19T05:26:39;101842.04;;;0.17;92.51
54628;BME280;40525;55.926;21.066;2023-11-19T05:29:07;101837.23;;;0.19;92.74
54628;BME280;40525;55.926;21.066;2023-11-19T05:31:34;101837.58;;;0.20;92.48
54628;BME280;40525;55.926;21.066;2023-11-19T05:34:03;101831.10;;;0.16;92.43
54628;BME280;40525;55.926;21.066;2023-11-19T05:36:31;101829.67;;;0.12;92.21
54628;BME280;40525;55.926;21.066;2023-11-19T05:38:58;101829.79;;;0.08;92.21
54628;BME280;40525;55.926;21.066;2023-11-19T05:41:25;101828.19;;;0.07;92.19
54628;BME280;40525;55.926;21.066;2023-11-19T05:43:52;101825.58;;;0.04;92.22
54628;BME280;40525;55.926;21.066;2023-11-19T05:46:19;101826.85;;;0.08;92.46
54628;BME280;40525;55.926;21.066;2023-11-19T05:48:47;101827.07;;;0.11;92.58
54628;BME280;40525;55.926;21.066;2023-11-19T05:51:15;101825.20;;;0.14;92.91
54628;BME280;40525;55.926;21.066;2023-11-19T05:53:43;101824.20;;;0.16;92.97
54628;BME280;40525;55.926;21.066;2023-11-19T05:56:12;101825.23;;;0.16;93.06
54628;BME280;40525;55.926;21.066;2023-11-19T05:58:40;101824.20;;;0.16;92.93
54628;BME280;40525;55.926;21.066;2023-11-19T06:01:07;101823.30;;;0.13;92.75
54628;BME280;40525;55.926;21.066;2023-11-19T06:03:35;101821.35;;;0.11;92.66
54628;BME280;40525;55.926;21.066;2023-11-19T06:06:04;101822.36;;;0.09;92.57
54628;BME280;40525;55.926;21.066;2023-11-19T06:08:32;101821.33;;;0.08;92.43
54628;BME280;40525;55.926;21.066;2023-11-19T06:10:59;101819.81;;;0.12;92.82
54628;BME280;40525;55.926;21.066;2023-11-19T06:13:28;101817.63;;;0.15;92.94
54628;BME280;40525;55.926;21.066;2023-11-19T06:15:58;101816.13;;;0.19;93.09
54628;BME280;40525;55.926;21.066;2023-11-19T06:18:25;101810.25;;;0.19;92.96
54628;BME280;40525;55.926;21.066;2023-11-19T06:20:53;101808.16;;;0.18;92.86
54628;BME280;40525;55.926;21.066;2023-11-19T06:23:20;101806.57;;;0.16;92.81
54628;BME280;40525;55.926;21.066;2023-11-19T06:25:47;101803.61;;;0.15;92.72
54628;BME280;40525;55.926;21.066;2023-11-19T06:28:14;101802.20;;;0.14;92.53
54628;BME280;40525;55.926;21.066;2023-11-19T06:30:41;101800.66;;;0.15;92.52
54628;BME280;40525;55.926;21.066;2023-11-19T06:33:12;101793.08;;;0.16;92.63
54628;BME280;40525;55.926;21.066;2023-11-19T06:35:40;101793.63;;;0.17;92.64
54628;BME280;40525;55.926;21.066;2023-11-19T06:38:07;101793.59;;;0.15;92.62
54628;BME280;40525;55.926;21.066;2023-11-19T06:40:34;101789.42;;;0.15;92.82
54628;BME280;40525;55.926;21.066;2023-11-19T06:43:04;101784.39;;;0.14;92.77
54628;BME280;40525;55.926;21.066;2023-11-19T06:45:32;101782.82;;;0.12;92.61
54628;BME280;40525;55.926;21.066;2023-11-19T06:48:02;101780.00;;;0.08;92.41
54628;BME280;40525;55.926;21.066;2023-11-19T06:50:32;101773.10;;;0.08;92.44
54628;BME280;40525;55.926;21.066;2023-11-19T06:53:00;101767.40;;;0.09;92.54
54628;BME280;40525;55.926;21.066;2023-11-19T06:55:27;101762.97;;;0.14;92.93
54628;BME280;40525;55.926;21.066;2023-11-19T06:57:54;101770.23;;;0.16;92.82
54628;BME280;40525;55.926;21.066;2023-11-19T07:00:21;101774.04;;;0.14;92.77
54628;BME280;40525;55.926;21.066;2023-11-19T07:02:48;101772.98;;;0.13;92.75
54628;BME280;40525;55.926;21.066;2023-11-19T07:05:16;101769.01;;;0.13;92.59
54628;BME280;40525;55.926;21.066;2023-11-19T07:07:43;101771.73;;;0.11;92.35
54628;BME280;40525;55.926;21.066;2023-11-19T07:10:13;101766.91;;;0.11;92.38
54628;BME280;40525;55.926;21.066;2023-11-19T07:12:41;101753.84;;;0.16;92.64
54628;BME280;40525;55.926;21.066;2023-11-19T07:15:09;101754.39;;;0.19;92.55
54628;BME280;40525;55.926;21.066;2023-11-19T07:17:36;101755.08;;;0.17;92.45
54628;BME280;40525;55.926;21.066;2023-11-19T07:20:04;101750.55;;;0.15;92.36
54628;BME280;40525;55.926;21.066;2023-11-19T07:22:32;101760.02;;;0.14;92.18
54628;BME280;40525;55.926;21.066;2023-11-19T07:24:59;101760.52;;;0.12;92.17
54628;BME280;40525;55.926;21.066;2023-11-19T07:27:26;101765.69;;;0.11;91.90
54628;BME280;40525;55.926;21.066;2023-11-19T07:29:54;101766.89;;;0.10;91.80
54628;BME280;40525;55.926;21.066;2023-11-19T07:32:21;101760.19;;;0.14;91.96
54628;BME280;40525;55.926;21.066;2023-11-19T07:34:48;101754.34;;;0.15;91.98
54628;BME280;40525;55.926;21.066;2023-11-19T07:37:16;101756.94;;;0.16;92.17
54628;BME280;40525;55.926;21.066;2023-11-19T07:39:43;101755.77;;;0.18;92.19
54628;BME280;40525;55.926;21.066;2023-11-19T07:42:10;101754.03;;;0.18;92.08
54628;BME280;40525;55.926;21.066;2023-11-19T07:44:37;101757.29;;;0.17;91.97
54628;BME280;40525;55.926;21.066;2023-11-19T07:47:05;101754.83;;;0.13;91.70
54628;BME280;40525;55.926;21.066;2023-11-19T07:49:32;101752.53;;;0.10;91.48
54628;BME280;40525;55.926;21.066;2023-11-19T07:51:59;101745.41;;;0.07;91.51
54628;BME280;40525;55.926;21.066;2023-11-19T07:54:26;101738.02;;;0.10;91.76
54628;BME280;40525;55.926;21.066;2023-11-19T07:56:53;101726.58;;;0.08;91.77
54628;BME280;40525;55.926;21.066;2023-11-19T07:59:21;101733.79;;;0.17;91.92
54628;BME280;40525;55.926;21.066;2023-11-19T08:01:48;101731.94;;;0.19;91.96
54628;BME280;40525;55.926;21.066;2023-11-19T08:04:15;101730.20;;;0.20;92.07
54628;BME280;40525;55.926;21.066;2023-11-19T08:06:42;101728.31;;;0.21;92.05
54628;BME280;40525;55.926;21.066;2023-11-19T08:09:09;101727.96;;;0.20;91.81
54628;BME280;40525;55.926;21.066;2023-11-19T08:11:41;101722.76;;;0.19;91.78
54628;BME280;40525;55.926;21.066;2023-11-19T08:14:09;101718.80;;;0.22;91.88
54628;BME280;40525;55.926;21.066;2023-11-19T08:16:36;101716.27;;;0.26;91.93
54628;BME280;40525;55.926;21.066;2023-11-19T08:19:04;101715.31;;;0.32;91.92
54628;BME280;40525;55.926;21.066;2023-11-19T08:21:31;101710.55;;;0.38;92.22
54628;BME280;40525;55.926;21.066;2023-11-19T08:23:59;101712.88;;;0.46;92.38
54628;BME280;40525;55.926;21.066;2023-11-19T08:26:26;101708.28;;;0.52;92.28
54628;BME280;40525;55.926;21.066;2023-11-19T08:28:53;101707.27;;;0.54;92.06
54628;BME280;40525;55.926;21.066;2023-11-19T08:31:20;101711.46;;;0.56;92.04
54628;BME280;40525;55.926;21.066;2023-11-19T08:33:47;101706.80;;;0.58;92.00
54628;BME280;40525;55.926;21.066;2023-11-19T08:36:17;101704.61;;;0.63;91.93
54628;BME280;40525;55.926;21.066;2023-11-19T08:38:44;101702.77;;;0.69;91.81
54628;BME280;40525;55.926;21.066;2023-11-19T08:41:12;101699.69;;;0.73;91.70
54628;BME280;40525;55.926;21.066;2023-11-19T08:43:39;101699.75;;;0.76;91.96
54628;BME280;40525;55.926;21.066;2023-11-19T08:46:11;101693.17;;;0.77;91.95
54628;BME280;40525;55.926;21.066;2023-11-19T08:48:38;101695.27;;;0.78;91.71
54628;BME280;40525;55.926;21.066;2023-11-19T08:51:05;101690.77;;;0.80;91.80
54628;BME280;40525;55.926;21.066;2023-11-19T08:53:33;101687.67;;;0.81;91.68
54628;BME280;40525;55.926;21.066;2023-11-19T08:56:01;101685.95;;;0.82;91.31
54628;BME280;40525;55.926;21.066;2023-11-19T08:58:30;101681.48;;;0.86;91.36
54628;BME280;40525;55.926;21.066;2023-11-19T09:00:58;101677.07;;;0.93;91.66
54628;BME280;40525;55.926;21.066;2023-11-19T09:03:25;101676.63;;;1.02;91.63
54628;BME280;40525;55.926;21.066;2023-11-19T09:05:57;101675.63;;;1.06;91.73
54628;BME280;40525;55.926;21.066;2023-11-19T09:08:24;101669.09;;;1.11;91.49
54628;BME280;40525;55.926;21.066;2023-11-19T09:10:51;101669.46;;;1.14;91.53
54628;BME280;40525;55.926;21.066;2023-11-19T09:13:18;101659.99;;;1.22;91.52
54628;BME280;40525;55.926;21.066;2023-11-19T09:15:45;101654.84;;;1.28;91.30
54628;BME280;40525;55.926;21.066;2023-11-19T09:18:12;101652.14;;;1.36;91.15
54628;BME280;40525;55.926;21.066;2023-11-19T09:20:39;101644.73;;;1.42;91.14
54628;BME280;40525;55.926;21.066;2023-11-19T09:23:06;101645.00;;;1.56;91.45
54628;BME280;40525;55.926;21.066;2023-11-19T09:25:36;101640.23;;;1.69;91.37
54628;BME280;40525;55.926;21.066;2023-11-19T09:28:05;101639.59;;;1.79;91.45
54628;BME280;40525;55.926;21.066;2023-11-19T09:30:33;101633.24;;;1.91;91.42
54628;BME280;40525;55.926;21.066;2023-11-19T09:33:01;101630.85;;;2.00;90.83
54628;BME280;40525;55.926;21.066;2023-11-19T09:35:28;101629.30;;;2.04;90.41
54628;BME280;40525;55.926;21.066;2023-11-19T09:37:55;101630.02;;;2.09;90.14
54628;BME280;40525;55.926;21.066;2023-11-19T09:40:23;101627.79;;;2.15;89.76
54628;BME280;40525;55.926;21.066;2023-11-19T09:42:50;101627.98;;;2.20;89.32
54628;BME280;40525;55.926;21.066;2023-11-19T09:45:20;101630.08;;;2.26;88.94
54628;BME280;40525;55.926;21.066;2023-11-19T09:47:50;101628.89;;;2.34;89.45
54628;BME280;40525;55.926;21.066;2023-11-19T09:50:19;101627.70;;;2.41;88.10
54628;BME280;40525;55.926;21.066;2023-11-19T09:52:47;101620.60;;;2.45;87.71
54628;BME280;40525;55.926;21.066;2023-11-19T09:55:15;101616.79;;;2.46;87.64
54628;BME280;40525;55.926;21.066;2023-11-19T09:57:43;101620.27;;;2.52;87.18
54628;BME280;40525;55.926;21.066;2023-11-19T10:00:13;101618.00;;;2.54;86.85
54628;BME280;40525;55.926;21.066;2023-11-19T10:02:43;101614.38;;;2.59;86.42
54628;BME280;40525;55.926;21.066;2023-11-19T10:05:14;101612.81;;;2.56;86.57
54628;BME280;40525;55.926;21.066;2023-11-19T10:07:42;101611.05;;;2.51;86.26
54628;BME280;40525;55.926;21.066;2023-11-19T10:10:10;101610.52;;;2.45;85.96
54628;BME280;40525;55.926;21.066;2023-11-19T10:12:40;101611.02;;;2.37;85.16
54628;BME280;40525;55.926;21.066;2023-11-19T10:15:24;101610.99;;;2.23;84.00
54628;BME280;40525;55.926;21.066;2023-11-19T10:17:57;101605.05;;;2.09;84.07
54628;BME280;40525;55.926;21.066;2023-11-19T10:20:25;101600.52;;;2.05;84.71
54628;BME280;40525;55.926;21.066;2023-11-19T10:22:53;101597.39;;;2.02;84.86
54628;BME280;40525;55.926;21.066;2023-11-19T10:25:26;101596.34;;;1.98;84.85
54628;BME280;40525;55.926;21.066;2023-11-19T10:27:55;101591.29;;;1.93;84.61
54628;BME280;40525;55.926;21.066;2023-11-19T10:30:24;101590.58;;;1.90;84.76
54628;BME280;40525;55.926;21.066;2023-11-19T10:33:12;101585.89;;;1.86;84.27
54628;BME280;40525;55.926;21.066;2023-11-19T10:35:54;101581.35;;;1.80;83.90
54628;BME280;40525;55.926;21.066;2023-11-19T10:38:26;101578.02;;;1.74;84.20
54628;BME280;40525;55.926;21.066;2023-11-19T10:40:54;101579.94;;;1.75;84.70
54628;BME280;40525;55.926;21.066;2023-11-19T10:43:23;101582.54;;;1.75;84.89
54628;BME280;40525;55.926;21.066;2023-11-19T10:45:51;101575.08;;;1.75;84.72
54628;BME280;40525;55.926;21.066;2023-11-19T10:48:19;101569.17;;;1.73;84.72
54628;BME280;40525;55.926;21.066;2023-11-19T10:50:51;101566.23;;;1.71;84.54
54628;BME280;40525;55.926;21.066;2023-11-19T10:53:21;101567.94;;;1.68;84.56
54628;BME280;40525;55.926;21.066;2023-11-19T10:55:50;101564.12;;;1.67;84.54
54628;BME280;40525;55.926;21.066;2023-11-19T10:58:18;101560.64;;;1.64;84.20
54628;BME280;40525;55.926;21.066;2023-11-19T11:00:48;101555.08;;;1.60;84.10
54628;BME280;40525;55.926;21.066;2023-11-19T11:03:20;101556.29;;;1.57;83.98
54628;BME280;40525;55.926;21.066;2023-11-19T11:05:49;101550.22;;;1.55;83.79
54628;BME280;40525;55.926;21.066;2023-11-19T11:08:17;101545.86;;;1.53;83.77
54628;BME280;40525;55.926;21.066;2023-11-19T11:10:55;101543.60;;;1.51;83.67
54628;BME280;40525;55.926;21.066;2023-11-19T11:13:25;101541.69;;;1.48;83.54
54628;BME280;40525;55.926;21.066;2023-11-19T11:15:56;101536.63;;;1.44;83.24
54628;BME280;40525;55.926;21.066;2023-11-19T11:18:25;101535.08;;;1.43;83.28
54628;BME280;40525;55.926;21.066;2023-11-19T11:20:58;101530.94;;;1.45;83.61
54628;BME280;40525;55.926;21.066;2023-11-19T11:35:03;101515.54;;;1.52;82.90
54628;BME280;40525;55.926;21.066;2023-11-19T11:37:39;101513.63;;;1.51;82.93
54628;BME280;40525;55.926;21.066;2023-11-19T11:40:16;101510.50;;;1.50;82.82
54628;BME280;40525;55.926;21.066;2023-11-19T11:42:45;101509.27;;;1.48;82.48
54628;BME280;40525;55.926;21.066;2023-11-19T11:45:13;101506.33;;;1.45;82.50
54628;BME280;40525;55.926;21.066;2023-11-19T11:50:19;101499.20;;;1.41;81.86
54628;BME280;40525;55.926;21.066;2023-11-19T11:55:33;101491.09;;;1.45;82.53
54628;BME280;40525;55.926;21.066;2023-11-19T11:58:01;101486.42;;;1.49;82.66
54628;BME280;40525;55.926;21.066;2023-11-19T12:00:32;101483.14;;;1.51;82.57
54628;BME280;40525;55.926;21.066;2023-11-19T12:03:00;101485.55;;;1.53;82.56
54628;BME280;40525;55.926;21.066;2023-11-19T12:05:29;101481.77;;;1.55;82.59
54628;BME280;40525;55.926;21.066;2023-11-19T12:08:01;101477.10;;;1.56;82.29
54628;BME280;40525;55.926;21.066;2023-11-19T12:10:30;101472.91;;;1.54;82.04
54628;BME280;40525;55.926;21.066;2023-11-19T12:13:00;101470.84;;;1.53;81.94
54628;BME280;40525;55.926;21.066;2023-11-19T12:15:28;101469.28;;;1.53;81.96
54628;BME280;40525;55.926;21.066;2023-11-19T12:17:55;101466.16;;;1.52;81.87
54628;BME280;40525;55.926;21.066;2023-11-19T12:20:26;101463.20;;;1.50;81.78
54628;BME280;40525;55.926;21.066;2023-11-19T12:22:56;101456.96;;;1.47;81.11
54628;BME280;40525;55.926;21.066;2023-11-19T12:25:24;101455.23;;;1.46;81.48
54628;BME280;40525;55.926;21.066;2023-11-19T12:27:52;101457.48;;;1.48;81.74
54628;BME280;40525;55.926;21.066;2023-11-19T12:30:24;101453.16;;;1.53;82.06
54628;BME280;40525;55.926;21.066;2023-11-19T12:32:53;101445.89;;;1.55;81.97
54628;BME280;40525;55.926;21.066;2023-11-19T12:35:22;101445.04;;;1.57;81.80
54628;BME280;40525;55.926;21.066;2023-11-19T12:37:51;101439.51;;;1.58;81.68
54628;BME280;40525;55.926;21.066;2023-11-19T12:40:24;101436.55;;;1.57;81.48
54628;BME280;40525;55.926;21.066;2023-11-19T12:42:53;101438.64;;;1.57;81.43
54628;BME280;40525;55.926;21.066;2023-11-19T12:45:21;101438.96;;;1.56;81.33
54628;BME280;40525;55.926;21.066;2023-11-19T12:48:07;101436.36;;;1.56;81.28
54628;BME280;40525;55.926;21.066;2023-11-19T12:50:54;101430.64;;;1.53;81.07
54628;BME280;40525;55.926;21.066;2023-11-19T12:53:26;101424.39;;;1.49;80.74
54628;BME280;40525;55.926;21.066;2023-11-19T12:55:54;101421.44;;;1.46;80.68
54628;BME280;40525;55.926;21.066;2023-11-19T12:58:32;101412.23;;;1.42;80.69
54628;BME280;40525;55.926;21.066;2023-11-19T13:01:04;101407.04;;;1.43;80.96
54628;BME280;40525;55.926;21.066;2023-11-19T13:03:34;101402.03;;;1.47;81.22
54628;BME280;40525;55.926;21.066;2023-11-19T13:06:06;101398.06;;;1.52;81.40
54628;BME280;40525;55.926;21.066;2023-11-19T13:11:08;101384.91;;;1.59;81.23
54628;BME280;40525;55.926;21.066;2023-11-19T13:16:22;101373.13;;;1.57;81.05
54628;BME280;40525;55.926;21.066;2023-11-19T13:18:49;101369.14;;;1.56;80.74
54628;BME280;40525;55.926;21.066;2023-11-19T13:21:17;101369.30;;;1.52;80.67
54628;BME280;40525;55.926;21.066;2023-11-19T13:23:44;101366.86;;;1.49;80.41